sensor_id;sensor_type;location;lat;lon;timestamp;temperature;humidity
56162;DHT22;42045;52.986;6.014;2023-08-01T00:00:48;16.00;99.90
56162;DHT22;42045;52.986;6.014;2023-08-01T00:03:13;16.00;99.90
56162;DHT22;42045;52.986;6.014;2023-08-01T00:05:40;16.00;99.90
56162;DHT22;42045;52.986;6.014;2023-08-01T00:08:13;15.90;99.90
56162;DHT22;42045;52.986;6.014;2023-08-01T00:10:40;15.90;99.90
56162;DHT22;42045;52.986;6.014;2023-08-01T00:13:06;15.90;99.90
56162;DHT22;42045;52.986;6.014;2023-08-01T00:15:32;15.80;99.90
56162;DHT22;42045;52.986;6.014;2023-08-01T00:17:58;15.80;99.90
56162;DHT22;42045;52.986;6.014;2023-08-01T00:20:25;15.70;99.90
56162;DHT22;42045;52.986;6.014;2023-08-01T00:22:50;15.70;99.90
56162;DHT22;42045;52.986;6.014;2023-08-01T00:25:17;15.80;99.90
56162;DHT22;42045;52.986;6.014;2023-08-01T00:27:43;15.80;99.90
56162;DHT22;42045;52.986;6.014;2023-08-01T00:30:09;15.90;99.90
56162;DHT22;42045;52.986;6.014;2023-08-01T00:32:35;15.80;99.90
56162;DHT22;42045;52.986;6.014;2023-08-01T00:35:01;15.90;99.90
56162;DHT22;42045;52.986;6.014;2023-08-01T00:37:27;16.00;99.90
56162;DHT22;42045;52.986;6.014;2023-08-01T00:39:52;16.00;99.90
56162;DHT22;42045;52.986;6.014;2023-08-01T00:42:18;16.00;99.90
56162;DHT22;42045;52.986;6.014;2023-08-01T00:44:43;16.00;99.90
56162;DHT22;42045;52.986;6.014;2023-08-01T00:47:10;15.90;99.90
56162;DHT22;42045;52.986;6.014;2023-08-01T00:49:35;16.00;99.90
56162;DHT22;42045;52.986;6.014;2023-08-01T00:52:01;15.90;99.90
56162;DHT22;42045;52.986;6.014;2023-08-01T00:54:27;15.90;99.90
56162;DHT22;42045;52.986;6.014;2023-08-01T00:56:54;15.90;99.90
56162;DHT22;42045;52.986;6.014;2023-08-01T00:59:19;15.80;99.90
56162;DHT22;42045;52.986;6.014;2023-08-01T01:01:45;15.80;99.90
56162;DHT22;42045;52.986;6.014;2023-08-01T01:04:11;15.70;99.90
56162;DHT22;42045;52.986;6.014;2023-08-01T01:06:58;15.70;99.90
56162;DHT22;42045;52.986;6.014;2023-08-01T01:09:28;15.70;99.90
56162;DHT22;42045;52.986;6.014;2023-08-01T01:11:54;15.70;99.90
56162;DHT22;42045;52.986;6.014;2023-08-01T01:14:20;15.70;99.90
56162;DHT22;42045;52.986;6.014;2023-08-01T01:16:46;15.70;99.90
56162;DHT22;42045;52.986;6.014;2023-08-01T01:19:11;15.70;99.90
56162;DHT22;42045;52.986;6.014;2023-08-01T01:21:41;15.70;99.90
56162;DHT22;42045;52.986;6.014;2023-08-01T01:24:10;15.70;99.90
56162;DHT22;42045;52.986;6.014;2023-08-01T01:26:37;15.70;99.90
56162;DHT22;42045;52.986;6.014;2023-08-01T01:29:04;15.70;99.90
56162;DHT22;42045;52.986;6.014;2023-08-01T01:31:32;15.60;99.90
56162;DHT22;42045;52.986;6.014;2023-08-01T01:33:59;15.60;99.90
56162;DHT22;42045;52.986;6.014;2023-08-01T01:36:24;15.70;99.90
56162;DHT22;42045;52.986;6.014;2023-08-01T01:38:50;15.60;99.90
56162;DHT22;42045;52.986;6.014;2023-08-01T01:41:15;15.60;99.90
56162;DHT22;42045;52.986;6.014;2023-08-01T01:43:41;15.50;99.90
56162;DHT22;42045;52.986;6.014;2023-08-01T01:46:07;15.50;99.90
56162;DHT22;42045;52.986;6.014;2023-08-01T01:48:32;15.40;99.90
56162;DHT22;42045;52.986;6.014;2023-08-01T01:50:58;15.40;99.90
56162;DHT22;42045;52.986;6.014;2023-08-01T01:53:24;15.40;99.90
56162;DHT22;42045;52.986;6.014;2023-08-01T01:55:50;15.30;99.90
56162;DHT22;42045;52.986;6.014;2023-08-01T01:58:15;15.30;99.90
56162;DHT22;42045;52.986;6.014;2023-08-01T02:00:41;15.30;99.90
56162;DHT22;42045;52.986;6.014;2023-08-01T02:03:06;15.30;99.90
56162;DHT22;42045;52.986;6.014;2023-08-01T02:05:36;15.40;99.90
56162;DHT22;42045;52.986;6.014;2023-08-01T02:08:01;15.40;99.90
56162;DHT22;42045;52.986;6.014;2023-08-01T02:10:27;15.40;99.90
56162;DHT22;42045;52.986;6.014;2023-08-01T02:12:53;15.40;99.90
56162;DHT22;42045;52.986;6.014;2023-08-01T02:15:18;15.60;99.90
56162;DHT22;42045;52.986;6.014;2023-08-01T02:17:44;15.60;99.90
56162;DHT22;42045;52.986;6.014;2023-08-01T02:20:10;15.60;99.90
56162;DHT22;42045;52.986;6.014;2023-08-01T02:22:35;15.60;99.90
56162;DHT22;42045;52.986;6.014;2023-08-01T02:25:01;15.60;99.90
56162;DHT22;42045;52.986;6.014;2023-08-01T02:27:27;15.60;99.90
56162;DHT22;42045;52.986;6.014;2023-08-01T02:29:52;15.70;99.90
56162;DHT22;42045;52.986;6.014;2023-08-01T02:32:18;15.60;99.90
56162;DHT22;42045;52.986;6.014;2023-08-01T02:34:44;15.80;99.90
56162;DHT22;42045;52.986;6.014;2023-08-01T02:37:09;15.70;99.90
56162;DHT22;42045;52.986;6.014;2023-08-01T02:39:35;15.50;99.90
56162;DHT22;42045;52.986;6.014;2023-08-01T02:42:01;15.50;99.90
56162;DHT22;42045;52.986;6.014;2023-08-01T02:44:27;15.40;99.90
56162;DHT22;42045;52.986;6.014;2023-08-01T02:46:52;15.40;99.90
56162;DHT22;42045;52.986;6.014;2023-08-01T02:49:18;15.30;99.90
56162;DHT22;42045;52.986;6.014;2023-08-01T02:51:44;15.20;99.90
56162;DHT22;42045;52.986;6.014;2023-08-01T02:54:09;15.20;99.90
56162;DHT22;42045;52.986;6.014;2023-08-01T02:56:35;15.10;99.90
56162;DHT22;42045;52.986;6.014;2023-08-01T02:59:03;15.10;99.90
56162;DHT22;42045;52.986;6.014;2023-08-01T03:01:30;15.10;99.90
56162;DHT22;42045;52.986;6.014;2023-08-01T03:03:55;15.00;99.90
56162;DHT22;42045;52.986;6.014;2023-08-01T03:06:21;15.10;99.90
56162;DHT22;42045;52.986;6.014;2023-08-01T03:08:47;15.00;99.90
56162;DHT22;42045;52.986;6.014;2023-08-01T03:11:13;15.10;99.90
56162;DHT22;42045;52.986;6.014;2023-08-01T03:13:38;15.00;99.90
56162;DHT22;42045;52.986;6.014;2023-08-01T03:16:04;15.00;99.90
56162;DHT22;42045;52.986;6.014;2023-08-01T03:18:30;15.00;99.90
56162;DHT22;42045;52.986;6.014;2023-08-01T03:20:55;14.90;99.90
56162;DHT22;42045;52.986;6.014;2023-08-01T03:23:21;14.90;99.90
56162;DHT22;42045;52.986;6.014;2023-08-01T03:25:47;14.80;99.90
56162;DHT22;42045;52.986;6.014;2023-08-01T03:28:13;14.80;99.90
56162;DHT22;42045;52.986;6.014;2023-08-01T03:30:39;14.80;99.90
56162;DHT22;42045;52.986;6.014;2023-08-01T03:33:05;14.80;99.90
56162;DHT22;42045;52.986;6.014;2023-08-01T03:35:30;14.80;99.90
56162;DHT22;42045;52.986;6.014;2023-08-01T03:37:56;14.80;99.90
56162;DHT22;42045;52.986;6.014;2023-08-01T03:40:22;14.90;99.90
56162;DHT22;42045;52.986;6.014;2023-08-01T03:42:47;14.90;99.90
56162;DHT22;42045;52.986;6.014;2023-08-01T03:45:13;14.90;99.90
56162;DHT22;42045;52.986;6.014;2023-08-01T03:47:39;14.90;99.90
56162;DHT22;42045;52.986;6.014;2023-08-01T03:50:05;14.80;99.90
56162;DHT22;42045;52.986;6.014;2023-08-01T03:52:31;14.90;99.90
56162;DHT22;42045;52.986;6.014;2023-08-01T03:54:57;14.80;99.90
56162;DHT22;42045;52.986;6.014;2023-08-01T03:57:23;14.90;99.90
56162;DHT22;42045;52.986;6.014;2023-08-01T03:59:48;15.00;99.90
56162;DHT22;42045;52.986;6.014;2023-08-01T04:02:14;14.90;99.90
56162;DHT22;42045;52.986;6.014;2023-08-01T04:04:40;14.90;99.90
56162;DHT22;42045;52.986;6.014;2023-08-01T04:07:05;14.80;99.90
56162;DHT22;42045;52.986;6.014;2023-08-01T04:09:31;14.90;99.90
56162;DHT22;42045;52.986;6.014;2023-08-01T04:11:57;14.90;99.90
56162;DHT22;42045;52.986;6.014;2023-08-01T04:14:22;14.90;99.90
56162;DHT22;42045;52.986;6.014;2023-08-01T04:16:48;14.90;99.90
56162;DHT22;42045;52.986;6.014;2023-08-01T04:19:14;14.80;99.90
56162;DHT22;42045;52.986;6.014;2023-08-01T04:21:39;14.80;99.90
56162;DHT22;42045;52.986;6.014;2023-08-01T04:24:05;14.90;99.90
56162;DHT22;42045;52.986;6.014;2023-08-01T04:26:31;14.90;99.90
56162;DHT22;42045;52.986;6.014;2023-08-01T04:28:57;14.90;99.90
56162;DHT22;42045;52.986;6.014;2023-08-01T04:31:22;15.00;99.90
56162;DHT22;42045;52.986;6.014;2023-08-01T04:33:48;15.00;99.90
56162;DHT22;42045;52.986;6.014;2023-08-01T04:36:13;15.10;99.90
56162;DHT22;42045;52.986;6.014;2023-08-01T04:38:39;15.10;99.90
56162;DHT22;42045;52.986;6.014;2023-08-01T04:41:05;15.20;99.90
56162;DHT22;42045;52.986;6.014;2023-08-01T04:43:31;15.20;99.90
56162;DHT22;42045;52.986;6.014;2023-08-01T04:45:56;15.30;99.90
56162;DHT22;42045;52.986;6.014;2023-08-01T04:48:22;15.20;99.90
56162;DHT22;42045;52.986;6.014;2023-08-01T04:50:47;15.30;99.90
56162;DHT22;42045;52.986;6.014;2023-08-01T04:53:13;15.20;99.90
56162;DHT22;42045;52.986;6.014;2023-08-01T04:55:40;15.30;99.90
56162;DHT22;42045;52.986;6.014;2023-08-01T04:58:06;15.60;99.90
56162;DHT22;42045;52.986;6.014;2023-08-01T05:00:31;15.80;99.90
56162;DHT22;42045;52.986;6.014;2023-08-01T05:02:57;16.00;99.90
56162;DHT22;42045;52.986;6.014;2023-08-01T05:05:22;16.30;99.90
56162;DHT22;42045;52.986;6.014;2023-08-01T05:07:48;16.50;99.90
56162;DHT22;42045;52.986;6.014;2023-08-01T05:10:14;16.50;99.90
56162;DHT22;42045;52.986;6.014;2023-08-01T05:12:40;16.30;99.90
56162;DHT22;42045;52.986;6.014;2023-08-01T05:15:06;16.10;99.90
56162;DHT22;42045;52.986;6.014;2023-08-01T05:17:31;16.10;99.90
56162;DHT22;42045;52.986;6.014;2023-08-01T05:19:57;16.00;99.90
56162;DHT22;42045;52.986;6.014;2023-08-01T05:22:23;16.00;99.90
56162;DHT22;42045;52.986;6.014;2023-08-01T05:24:48;16.10;99.90
56162;DHT22;42045;52.986;6.014;2023-08-01T05:27:14;16.30;99.90
56162;DHT22;42045;52.986;6.014;2023-08-01T05:29:40;16.70;99.90
56162;DHT22;42045;52.986;6.014;2023-08-01T05:32:05;16.80;99.90
56162;DHT22;42045;52.986;6.014;2023-08-01T05:34:31;16.70;99.90
56162;DHT22;42045;52.986;6.014;2023-08-01T05:36:57;16.60;99.90
56162;DHT22;42045;52.986;6.014;2023-08-01T05:39:22;16.40;99.90
56162;DHT22;42045;52.986;6.014;2023-08-01T05:41:48;16.30;99.90
56162;DHT22;42045;52.986;6.014;2023-08-01T05:44:15;16.10;99.90
56162;DHT22;42045;52.986;6.014;2023-08-01T05:46:41;16.00;99.90
56162;DHT22;42045;52.986;6.014;2023-08-01T05:49:07;15.90;99.90
56162;DHT22;42045;52.986;6.014;2023-08-01T05:51:32;15.90;99.90
56162;DHT22;42045;52.986;6.014;2023-08-01T05:53:58;15.90;99.90
56162;DHT22;42045;52.986;6.014;2023-08-01T05:56:23;15.80;99.90
56162;DHT22;42045;52.986;6.014;2023-08-01T05:58:49;15.80;99.90
56162;DHT22;42045;52.986;6.014;2023-08-01T06:01:16;15.80;99.90
56162;DHT22;42045;52.986;6.014;2023-08-01T06:03:42;15.70;99.90
56162;DHT22;42045;52.986;6.014;2023-08-01T06:06:08;15.70;99.90
56162;DHT22;42045;52.986;6.014;2023-08-01T06:08:34;15.70;99.90
56162;DHT22;42045;52.986;6.014;2023-08-01T06:10:59;15.70;99.90
56162;DHT22;42045;52.986;6.014;2023-08-01T06:13:25;15.60;99.90
56162;DHT22;42045;52.986;6.014;2023-08-01T06:15:51;15.60;99.90
56162;DHT22;42045;52.986;6.014;2023-08-01T06:18:16;15.60;99.90
56162;DHT22;42045;52.986;6.014;2023-08-01T06:20:42;15.60;99.90
56162;DHT22;42045;52.986;6.014;2023-08-01T06:23:07;15.70;99.90
56162;DHT22;42045;52.986;6.014;2023-08-01T06:25:33;15.70;99.90
56162;DHT22;42045;52.986;6.014;2023-08-01T06:27:59;15.80;99.90
56162;DHT22;42045;52.986;6.014;2023-08-01T06:30:24;16.00;99.90
56162;DHT22;42045;52.986;6.014;2023-08-01T06:32:50;16.00;99.90
56162;DHT22;42045;52.986;6.014;2023-08-01T06:35:16;16.10;99.90
56162;DHT22;42045;52.986;6.014;2023-08-01T06:37:41;16.10;99.90
56162;DHT22;42045;52.986;6.014;2023-08-01T06:40:07;16.10;99.90
56162;DHT22;42045;52.986;6.014;2023-08-01T06:42:33;16.10;99.90
56162;DHT22;42045;52.986;6.014;2023-08-01T06:44:59;16.20;99.90
56162;DHT22;42045;52.986;6.014;2023-08-01T06:47:25;16.30;99.90
56162;DHT22;42045;52.986;6.014;2023-08-01T06:49:50;16.40;99.90
56162;DHT22;42045;52.986;6.014;2023-08-01T06:52:16;16.40;99.90
56162;DHT22;42045;52.986;6.014;2023-08-01T06:54:42;16.30;99.90
56162;DHT22;42045;52.986;6.014;2023-08-01T06:57:07;16.30;99.90
56162;DHT22;42045;52.986;6.014;2023-08-01T06:59:33;16.20;99.90
56162;DHT22;42045;52.986;6.014;2023-08-01T07:01:59;16.10;99.90
56162;DHT22;42045;52.986;6.014;2023-08-01T07:04:25;16.10;99.90
56162;DHT22;42045;52.986;6.014;2023-08-01T07:06:51;16.10;99.90
56162;DHT22;42045;52.986;6.014;2023-08-01T07:09:17;16.00;99.90
56162;DHT22;42045;52.986;6.014;2023-08-01T07:11:42;16.00;99.90
56162;DHT22;42045;52.986;6.014;2023-08-01T07:14:08;16.10;99.90
56162;DHT22;42045;52.986;6.014;2023-08-01T07:16:33;16.10;99.90
56162;DHT22;42045;52.986;6.014;2023-08-01T07:19:02;16.10;99.90
56162;DHT22;42045;52.986;6.014;2023-08-01T07:21:28;16.10;99.90
56162;DHT22;42045;52.986;6.014;2023-08-01T07:23:54;16.20;99.90
56162;DHT22;42045;52.986;6.014;2023-08-01T07:26:20;16.30;99.90
56162;DHT22;42045;52.986;6.014;2023-08-01T07:28:45;16.30;99.90
56162;DHT22;42045;52.986;6.014;2023-08-01T07:31:11;16.30;99.90
56162;DHT22;42045;52.986;6.014;2023-08-01T07:33:37;16.30;99.90
56162;DHT22;42045;52.986;6.014;2023-08-01T07:36:03;16.20;99.90
56162;DHT22;42045;52.986;6.014;2023-08-01T07:38:29;16.10;99.90
56162;DHT22;42045;52.986;6.014;2023-08-01T07:40:57;16.00;99.90
56162;DHT22;42045;52.986;6.014;2023-08-01T07:43:23;15.90;99.90
56162;DHT22;42045;52.986;6.014;2023-08-01T07:45:49;15.80;99.90
56162;DHT22;42045;52.986;6.014;2023-08-01T07:48:16;15.70;99.90
56162;DHT22;42045;52.986;6.014;2023-08-01T07:50:42;15.60;99.90
56162;DHT22;42045;52.986;6.014;2023-08-01T07:53:07;15.50;99.90
56162;DHT22;42045;52.986;6.014;2023-08-01T07:55:34;15.50;99.90
56162;DHT22;42045;52.986;6.014;2023-08-01T07:58:00;15.50;99.90
56162;DHT22;42045;52.986;6.014;2023-08-01T08:00:25;15.40;99.90
56162;DHT22;42045;52.986;6.014;2023-08-01T08:02:53;15.50;99.90
56162;DHT22;42045;52.986;6.014;2023-08-01T08:05:19;15.60;99.90
56162;DHT22;42045;52.986;6.014;2023-08-01T08:07:44;15.50;99.90
56162;DHT22;42045;52.986;6.014;2023-08-01T08:10:10;15.60;99.90
56162;DHT22;42045;52.986;6.014;2023-08-01T08:12:36;15.70;99.90
56162;DHT22;42045;52.986;6.014;2023-08-01T08:15:02;15.70;99.90
56162;DHT22;42045;52.986;6.014;2023-08-01T08:17:27;15.80;99.90
56162;DHT22;42045;52.986;6.014;2023-08-01T08:19:53;15.90;99.90
56162;DHT22;42045;52.986;6.014;2023-08-01T08:22:19;15.90;99.90
56162;DHT22;42045;52.986;6.014;2023-08-01T08:24:44;15.80;99.90
56162;DHT22;42045;52.986;6.014;2023-08-01T08:27:10;15.80;99.90
56162;DHT22;42045;52.986;6.014;2023-08-01T08:29:36;15.70;99.90
56162;DHT22;42045;52.986;6.014;2023-08-01T08:32:01;15.80;99.90
56162;DHT22;42045;52.986;6.014;2023-08-01T08:34:27;15.80;99.90
56162;DHT22;42045;52.986;6.014;2023-08-01T08:36:53;15.90;99.90
56162;DHT22;42045;52.986;6.014;2023-08-01T08:39:19;16.00;99.90
56162;DHT22;42045;52.986;6.014;2023-08-01T08:41:50;16.10;99.90
56162;DHT22;42045;52.986;6.014;2023-08-01T08:44:18;16.10;99.90
56162;DHT22;42045;52.986;6.014;2023-08-01T08:46:52;16.10;99.90
56162;DHT22;42045;52.986;6.014;2023-08-01T08:49:21;16.10;99.90
56162;DHT22;42045;52.986;6.014;2023-08-01T08:51:48;16.00;99.90
56162;DHT22;42045;52.986;6.014;2023-08-01T08:54:15;15.90;99.90
56162;DHT22;42045;52.986;6.014;2023-08-01T08:56:41;15.90;99.90
56162;DHT22;42045;52.986;6.014;2023-08-01T08:59:08;15.90;99.90
56162;DHT22;42045;52.986;6.014;2023-08-01T09:01:39;15.90;99.90
56162;DHT22;42045;52.986;6.014;2023-08-01T09:04:06;16.00;99.90
56162;DHT22;42045;52.986;6.014;2023-08-01T09:06:34;16.10;99.90
56162;DHT22;42045;52.986;6.014;2023-08-01T09:09:02;16.10;99.90
56162;DHT22;42045;52.986;6.014;2023-08-01T09:11:28;16.20;99.90
56162;DHT22;42045;52.986;6.014;2023-08-01T09:13:53;16.20;99.90
56162;DHT22;42045;52.986;6.014;2023-08-01T09:16:19;16.20;99.90
56162;DHT22;42045;52.986;6.014;2023-08-01T09:18:52;16.20;99.90
56162;DHT22;42045;52.986;6.014;2023-08-01T09:21:22;16.20;99.90
56162;DHT22;42045;52.986;6.014;2023-08-01T09:23:48;16.40;99.90
56162;DHT22;42045;52.986;6.014;2023-08-01T09:26:18;16.30;99.90
56162;DHT22;42045;52.986;6.014;2023-08-01T09:28:44;16.30;99.90
56162;DHT22;42045;52.986;6.014;2023-08-01T09:31:10;16.20;99.90
56162;DHT22;42045;52.986;6.014;2023-08-01T09:33:40;16.20;99.90
56162;DHT22;42045;52.986;6.014;2023-08-01T09:36:07;16.20;99.90
56162;DHT22;42045;52.986;6.014;2023-08-01T09:38:37;16.00;99.90
56162;DHT22;42045;52.986;6.014;2023-08-01T09:41:04;16.00;99.90
56162;DHT22;42045;52.986;6.014;2023-08-01T09:43:34;15.90;99.90
56162;DHT22;42045;52.986;6.014;2023-08-01T09:46:03;16.00;99.90
56162;DHT22;42045;52.986;6.014;2023-08-01T09:48:31;16.20;99.90
56162;DHT22;42045;52.986;6.014;2023-08-01T09:51:11;16.50;99.90
56162;DHT22;42045;52.986;6.014;2023-08-01T09:56:23;17.30;99.90
56162;DHT22;42045;52.986;6.014;2023-08-01T09:58:51;17.40;99.90
56162;DHT22;42045;52.986;6.014;2023-08-01T10:01:18;17.10;99.90
56162;DHT22;42045;52.986;6.014;2023-08-01T10:03:49;17.00;99.90
56162;DHT22;42045;52.986;6.014;2023-08-01T10:06:18;16.90;99.90
56162;DHT22;42045;52.986;6.014;2023-08-01T10:08:45;17.20;99.90
56162;DHT22;42045;52.986;6.014;2023-08-01T10:11:14;17.70;99.90
56162;DHT22;42045;52.986;6.014;2023-08-01T10:13:41;17.90;99.90
56162;DHT22;42045;52.986;6.014;2023-08-01T10:16:08;18.10;99.90
56162;DHT22;42045;52.986;6.014;2023-08-01T10:18:34;18.40;99.90
56162;DHT22;42045;52.986;6.014;2023-08-01T10:21:06;18.60;99.90
56162;DHT22;42045;52.986;6.014;2023-08-01T10:23:33;18.90;99.90
56162;DHT22;42045;52.986;6.014;2023-08-01T10:26:00;19.00;99.90
56162;DHT22;42045;52.986;6.014;2023-08-01T10:28:33;19.00;99.90
56162;DHT22;42045;52.986;6.014;2023-08-01T10:31:12;19.10;99.90
56162;DHT22;42045;52.986;6.014;2023-08-01T10:33:40;19.10;99.90
56162;DHT22;42045;52.986;6.014;2023-08-01T10:36:21;19.30;99.90
56162;DHT22;42045;52.986;6.014;2023-08-01T10:38:57;19.10;99.90
56162;DHT22;42045;52.986;6.014;2023-08-01T10:41:34;18.80;99.90
56162;DHT22;42045;52.986;6.014;2023-08-01T10:44:09;18.60;99.90
56162;DHT22;42045;52.986;6.014;2023-08-01T10:49:19;18.50;99.90
56162;DHT22;42045;52.986;6.014;2023-08-01T10:51:45;18.70;99.90
56162;DHT22;42045;52.986;6.014;2023-08-01T10:54:24;18.80;99.90
56162;DHT22;42045;52.986;6.014;2023-08-01T10:56:52;19.00;99.90
56162;DHT22;42045;52.986;6.014;2023-08-01T10:59:19;18.90;99.90
56162;DHT22;42045;52.986;6.014;2023-08-01T11:01:47;18.80;99.90
56162;DHT22;42045;52.986;6.014;2023-08-01T11:04:18;18.70;99.90
56162;DHT22;42045;52.986;6.014;2023-08-01T11:06:54;18.60;99.90
56162;DHT22;42045;52.986;6.014;2023-08-01T11:09:26;18.30;99.90
56162;DHT22;42045;52.986;6.014;2023-08-01T11:11:58;18.20;99.90
56162;DHT22;42045;52.986;6.014;2023-08-01T11:14:28;18.30;99.90
56162;DHT22;42045;52.986;6.014;2023-08-01T11:16:56;18.50;99.90
56162;DHT22;42045;52.986;6.014;2023-08-01T11:19:29;18.50;99.90
56162;DHT22;42045;52.986;6.014;2023-08-01T11:21:56;18.40;99.90
56162;DHT22;42045;52.986;6.014;2023-08-01T11:24:23;18.30;99.90
56162;DHT22;42045;52.986;6.014;2023-08-01T11:26:50;18.30;99.90
56162;DHT22;42045;52.986;6.014;2023-08-01T11:29:17;18.40;99.90
56162;DHT22;42045;52.986;6.014;2023-08-01T11:31:57;18.40;99.90
56162;DHT22;42045;52.986;6.014;2023-08-01T11:34:23;18.50;99.90
56162;DHT22;42045;52.986;6.014;2023-08-01T11:36:49;18.50;99.90
56162;DHT22;42045;52.986;6.014;2023-08-01T11:39:16;18.80;99.90
56162;DHT22;42045;52.986;6.014;2023-08-01T11:41:43;19.00;99.90
56162;DHT22;42045;52.986;6.014;2023-08-01T11:44:08;19.10;99.90
56162;DHT22;42045;52.986;6.014;2023-08-01T11:46:37;19.00;99.90
56162;DHT22;42045;52.986;6.014;2023-08-01T11:49:04;19.20;99.90
56162;DHT22;42045;52.986;6.014;2023-08-01T11:51:39;19.50;99.90
56162;DHT22;42045;52.986;6.014;2023-08-01T11:54:04;19.60;99.90
56162;DHT22;42045;52.986;6.014;2023-08-01T11:56:31;19.90;99.90
56162;DHT22;42045;52.986;6.014;2023-08-01T11:58:57;20.00;99.90
56162;DHT22;42045;52.986;6.014;2023-08-01T12:01:24;20.00;99.90
56162;DHT22;42045;52.986;6.014;2023-08-01T12:03:51;19.90;99.90
56162;DHT22;42045;52.986;6.014;2023-08-01T12:06:19;19.90;99.90
56162;DHT22;42045;52.986;6.014;2023-08-01T12:08:46;19.70;99.90
56162;DHT22;42045;52.986;6.014;2023-08-01T12:11:23;19.60;99.90
56162;DHT22;42045;52.986;6.014;2023-08-01T12:14:07;19.70;99.90
56162;DHT22;42045;52.986;6.014;2023-08-01T12:16:35;19.70;99.90
56162;DHT22;42045;52.986;6.014;2023-08-01T12:19:02;19.70;99.90
56162;DHT22;42045;52.986;6.014;2023-08-01T12:21:29;19.50;99.90
56162;DHT22;42045;52.986;6.014;2023-08-01T12:23:55;19.60;99.90
56162;DHT22;42045;52.986;6.014;2023-08-01T12:26:20;19.50;99.90
56162;DHT22;42045;52.986;6.014;2023-08-01T12:28:46;19.90;99.90
56162;DHT22;42045;52.986;6.014;2023-08-01T12:31:19;20.10;99.90
56162;DHT22;42045;52.986;6.014;2023-08-01T12:33:46;20.30;99.90
56162;DHT22;42045;52.986;6.014;2023-08-01T12:36:12;20.20;99.90
56162;DHT22;42045;52.986;6.014;2023-08-01T12:38:39;20.10;99.90
56162;DHT22;42045;52.986;6.014;2023-08-01T12:41:06;20.20;99.90
56162;DHT22;42045;52.986;6.014;2023-08-01T12:43:31;20.00;99.90
56162;DHT22;42045;52.986;6.014;2023-08-01T12:45:57;19.90;99.90
56162;DHT22;42045;52.986;6.014;2023-08-01T12:48:24;19.90;99.90
56162;DHT22;42045;52.986;6.014;2023-08-01T12:50:50;20.00;99.90
56162;DHT22;42045;52.986;6.014;2023-08-01T12:53:15;20.20;99.90
56162;DHT22;42045;52.986;6.014;2023-08-01T12:55:45;20.30;99.90
56162;DHT22;42045;52.986;6.014;2023-08-01T12:58:11;20.10;99.90
56162;DHT22;42045;52.986;6.014;2023-08-01T13:00:36;19.80;99.90
56162;DHT22;42045;52.986;6.014;2023-08-01T13:03:03;19.30;99.90
56162;DHT22;42045;52.986;6.014;2023-08-01T13:05:28;19.30;99.90
56162;DHT22;42045;52.986;6.014;2023-08-01T13:07:54;19.20;99.90
56162;DHT22;42045;52.986;6.014;2023-08-01T13:10:20;19.20;99.90
56162;DHT22;42045;52.986;6.014;2023-08-01T13:12:45;19.20;99.90
56162;DHT22;42045;52.986;6.014;2023-08-01T13:15:11;19.10;99.90
56162;DHT22;42045;52.986;6.014;2023-08-01T13:17:36;18.90;99.90
56162;DHT22;42045;52.986;6.014;2023-08-01T13:20:04;18.30;99.90
56162;DHT22;42045;52.986;6.014;2023-08-01T13:22:30;18.40;99.90
56162;DHT22;42045;52.986;6.014;2023-08-01T13:24:55;18.30;99.90
56162;DHT22;42045;52.986;6.014;2023-08-01T13:27:21;18.40;99.90
56162;DHT22;42045;52.986;6.014;2023-08-01T13:29:46;18.40;99.90
56162;DHT22;42045;52.986;6.014;2023-08-01T13:32:15;18.40;99.90
56162;DHT22;42045;52.986;6.014;2023-08-01T13:34:41;18.40;99.90
56162;DHT22;42045;52.986;6.014;2023-08-01T13:37:06;18.60;99.90
56162;DHT22;42045;52.986;6.014;2023-08-01T13:39:34;18.80;99.90
56162;DHT22;42045;52.986;6.014;2023-08-01T13:42:00;19.00;99.90
56162;DHT22;42045;52.986;6.014;2023-08-01T13:44:26;19.30;99.90
56162;DHT22;42045;52.986;6.014;2023-08-01T13:46:51;19.40;99.90
56162;DHT22;42045;52.986;6.014;2023-08-01T13:49:17;19.50;99.90
56162;DHT22;42045;52.986;6.014;2023-08-01T13:51:43;19.50;99.90
56162;DHT22;42045;52.986;6.014;2023-08-01T13:54:09;19.40;99.90
56162;DHT22;42045;52.986;6.014;2023-08-01T13:56:34;19.40;99.90
56162;DHT22;42045;52.986;6.014;2023-08-01T13:59:00;19.30;99.90
56162;DHT22;42045;52.986;6.014;2023-08-01T14:01:25;19.30;99.90
56162;DHT22;42045;52.986;6.014;2023-08-01T14:03:51;19.40;99.90
56162;DHT22;42045;52.986;6.014;2023-08-01T14:06:17;19.70;99.90
56162;DHT22;42045;52.986;6.014;2023-08-01T14:08:42;19.90;99.90
56162;DHT22;42045;52.986;6.014;2023-08-01T14:11:09;20.00;99.90
56162;DHT22;42045;52.986;6.014;2023-08-01T14:13:35;20.10;99.90
56162;DHT22;42045;52.986;6.014;2023-08-01T14:16:02;20.10;99.90
56162;DHT22;42045;52.986;6.014;2023-08-01T14:18:28;20.10;99.90
56162;DHT22;42045;52.986;6.014;2023-08-01T14:20:54;20.20;99.90
56162;DHT22;42045;52.986;6.014;2023-08-01T14:23:21;20.20;99.90
56162;DHT22;42045;52.986;6.014;2023-08-01T14:25:47;20.10;99.90
56162;DHT22;42045;52.986;6.014;2023-08-01T14:28:13;20.10;99.90
56162;DHT22;42045;52.986;6.014;2023-08-01T14:30:39;20.00;99.90
56162;DHT22;42045;52.986;6.014;2023-08-01T14:33:08;19.90;99.90
56162;DHT22;42045;52.986;6.014;2023-08-01T14:35:35;20.00;99.90
56162;DHT22;42045;52.986;6.014;2023-08-01T14:38:01;20.00;99.90
56162;DHT22;42045;52.986;6.014;2023-08-01T14:40:28;20.00;99.90
56162;DHT22;42045;52.986;6.014;2023-08-01T14:42:54;19.90;99.90
56162;DHT22;42045;52.986;6.014;2023-08-01T14:45:19;20.10;99.90
56162;DHT22;42045;52.986;6.014;2023-08-01T14:47:46;19.90;99.90
56162;DHT22;42045;52.986;6.014;2023-08-01T14:50:13;19.60;99.90
56162;DHT22;42045;52.986;6.014;2023-08-01T14:52:39;19.30;99.90
56162;DHT22;42045;52.986;6.014;2023-08-01T14:55:05;19.30;99.90
56162;DHT22;42045;52.986;6.014;2023-08-01T14:57:31;19.20;99.90
56162;DHT22;42045;52.986;6.014;2023-08-01T14:59:57;19.20;99.90
56162;DHT22;42045;52.986;6.014;2023-08-01T15:02:23;19.20;99.90
56162;DHT22;42045;52.986;6.014;2023-08-01T15:04:56;19.10;99.90
56162;DHT22;42045;52.986;6.014;2023-08-01T15:07:23;19.00;99.90
56162;DHT22;42045;52.986;6.014;2023-08-01T15:09:50;19.00;99.90
56162;DHT22;42045;52.986;6.014;2023-08-01T15:12:16;18.90;99.90
56162;DHT22;42045;52.986;6.014;2023-08-01T15:14:42;19.00;99.90
56162;DHT22;42045;52.986;6.014;2023-08-01T15:17:08;19.10;99.90
56162;DHT22;42045;52.986;6.014;2023-08-01T15:19:35;19.10;99.90
56162;DHT22;42045;52.986;6.014;2023-08-01T15:22:01;19.20;99.90
56162;DHT22;42045;52.986;6.014;2023-08-01T15:24:30;19.20;99.90
56162;DHT22;42045;52.986;6.014;2023-08-01T15:26:56;19.20;99.90
56162;DHT22;42045;52.986;6.014;2023-08-01T15:29:22;19.50;99.90
56162;DHT22;42045;52.986;6.014;2023-08-01T15:31:47;19.50;99.90